Aviation Digital Data Service (ADDS)

Output produced by METARs form (1158 UTC 26 March 2019)
found at http://www.aviationweather.gov/metar/data/
 
Forecast for: VEAT (AGARTALA , IN)
Text: TAF VEAT 261100Z 2612/2621 00000KT 5000 HZ FEW020 FEW030CB SCT100
Forecast period: 1200 to 2100 UTC 26 March 2019
Forecast type: FROM: standard forecast or significant change
Winds: calm
Visibility: 3 miles (5 km)
Ceiling: at least 12,000 feet AGL
Clouds: few clouds at 2000 feet AGL
few clouds at 3000 feet AGL
scattered clouds at 10000 feet AGL
Weather: HZ  (haze)
Text: TEMPO 2613/2616 23003KT 3000 -TSRA SCT018 FEW030CB OVC090
Forecast period: 1300 to 1600 UTC 26 March 2019
Forecast type: TEMPORARY: The following changes expected for less than half the time period
Winds: from the SW (230 degrees) at 3 MPH (3 knots; 1.5 m/s)
Visibility: 1.86 miles (2.99 km)
Ceiling: 9000 feet AGL
Clouds: scattered clouds at 1800 feet AGL
few clouds at 3000 feet AGL
overcast cloud deck at 9000 feet AGL
Weather: -TSRA  (light rain associated with thunderstorm(s))